Bookmark and Share
Track history (hours):
 

Achtergracht

Last reported at 2014-Apr-20 15:34 UTC. Time now 2014-Apr-20 15:56 UTC.
Position S 32°35' E 152°32'.

Length 130 m; beam 19 m; draft 9 m.

Type: Cargo ship. MMSI: 244601000.

NotesDate/timePositionNaut miles runAvg speedWind from/ knotsBaromVisibWave heightAir tempDewpointWater temp
2014-Apr-20 15:34S 32°35' E 152°32'1111.5
2014-Apr-20 14:34S 32°43' E 152°22'1111.1
2014-Apr-20 13:34S 32°50' E 152°12'1211.6
2014-Apr-20 12:34S 32°55' E 151°59'1010.1
2014-Apr-20 11:33S 32°55' E 151°47'2 1.4
2014-Apr-20 10:05S 32°54' E 151°46'0 0.0
2014-Apr-20 08:23S 32°54' E 151°46'0 0.0
2014-Apr-20 07:29S 32°54' E 151°46'0 0.0
2014-Apr-20 06:23S 32°54' E 151°46'0 0.0
2014-Apr-20 05:29S 32°54' E 151°46'0 0.0
2014-Apr-20 04:11S 32°54' E 151°46'0 0.0
2014-Apr-19 23:16S 32°54' E 151°46'0 0.0
2014-Apr-19 22:22S 32°54' E 151°46'0 0.0
2014-Apr-19 21:04S 32°54' E 151°46'0 0.0
2014-Apr-19 20:16S 32°54' E 151°46'0 0.0
2014-Apr-19 18:16S 32°54' E 151°46'0 0.0
2014-Apr-19 16:28S 32°54' E 151°46'0 0.0
2014-Apr-19 15:28S 32°54' E 151°46'0 0.0
2014-Apr-19 14:22S 32°54' E 151°46'0 0.0
2014-Apr-19 13:28S 32°54' E 151°46'0 0.0
2014-Apr-19 12:04S 32°54' E 151°46'0 0.0
2014-Apr-19 11:28S 32°54' E 151°46'0 0.0
2014-Apr-19 10:28S 32°54' E 151°46'0 0.0
2014-Apr-19 09:22S 32°54' E 151°46'0 0.0
2014-Apr-19 08:22S 32°54' E 151°46'0 0.0
2014-Apr-19 07:28S 32°54' E 151°46'0 0.0
2014-Apr-19 06:28S 32°54' E 151°46'0 0.0
2014-Apr-19 05:22S 32°54' E 151°46'1 0.7
2014-Apr-19 04:34S 32°54' E 151°46'4 4.4
2014-Apr-19 03:33S 32°56' E 151°51'6 0.4
2014-Apr-18 14:03S 33°01' E 151°48'0 0.0
2014-Apr-18 11:09S 33°01' E 151°48'3 0.5
2014-Apr-18 06:03S 32°60' E 151°50'612.3
2014-Apr-18 05:33S 32°57' E 151°57'1211.9
2014-Apr-18 04:33S 32°51' E 152°09'1212.3
2014-Apr-18 03:33S 32°43' E 152°21'1212.4
2014-Apr-18 02:33S 32°35' E 152°31'18612.8
2014-Apr-17 12:00S 29°36' E 153°30'8710.3 180 / 191016.510.8 1.522.119.6
2014-Apr-17 03:33S 28°09' E 153°42'1111.2
2014-Apr-17 02:33S 27°58' E 153°42'1111.3
2014-Apr-17 01:33S 27°47' E 153°43'1111.5
2014-Apr-17 00:33S 27°36' E 153°44'1211.6
2014-Apr-16 23:33S 27°24' E 153°45'1111.4
2014-Apr-16 22:33S 27°13' E 153°47'1211.3
2014-Apr-16 21:27S 27°00' E 153°48'1311.2
2014-Apr-16 20:19S 26°48' E 153°49'2010.5
2014-Apr-16 18:23S 26°28' E 153°52'8212.8
2014-Apr-16 12:00S 25°06' E 154°00'228 9.5 180 / 121016.510.8 1.523.520.9
2014-Apr-15 12:00S 21°18' E 153°54'26210.9 180 / 181013.010.8 2.026.521.6
2014-Apr-14 12:00S 17°00' E 153°06'29312.2 310 / 101011.010.8 1.027.523.3
2014-Apr-13 12:00S 12°12' E 152°12'13511.3 330 / 81010.010.8 0.527.223.3
2014-Apr-13 00:00S 10°00' E 151°42'46312.5 320 / 31010.010.8 1.029.528.0
2014-Apr-11 11:00S 04°06' E 146°42'   310 / 151007.0 5.4 1.027.024.1

Dump ship's entire track history

sailing weather and tide predictions

Achtergracht — PCCL — position and weather